createdAt,value
2018-08-02T00:00:16.730Z,115.03
2018-08-02T00:02:59.547Z,37.00
2018-08-02T00:05:42.514Z,58.77
2018-08-02T00:08:24.911Z,24.23
2018-08-02T00:11:08.111Z,45.50
2018-08-02T00:13:50.821Z,142.80
2018-08-02T00:16:33.233Z,41.63
2018-08-02T00:19:16.121Z,27.20
2018-08-02T00:21:58.791Z,25.57
2018-08-02T00:24:41.333Z,53.67
2018-08-02T00:27:24.243Z,36.27
2018-08-02T00:30:07.577Z,46.50
2018-08-02T00:32:50.418Z,15.27
2018-08-02T00:35:33.186Z,18.03
2018-08-02T00:38:15.879Z,16.80
2018-08-02T00:40:58.458Z,18.63
2018-08-02T00:43:41.215Z,17.47
2018-08-02T00:46:24.169Z,39.40
2018-08-02T00:49:07.081Z,55.67
2018-08-02T00:51:49.600Z,87.03
2018-08-02T00:54:32.025Z,45.17
2018-08-02T00:57:14.759Z,16.70
2018-08-02T00:59:58.676Z,25.70
2018-08-02T01:02:41.151Z,24.43
2018-08-02T01:05:23.696Z,96.20
2018-08-02T01:08:06.999Z,21.57
2018-08-02T01:10:50.216Z,37.13
2018-08-02T01:13:32.912Z,25.57
2018-08-02T01:16:15.537Z,50.50
2018-08-02T01:18:58.660Z,91.07
2018-08-02T01:21:41.213Z,64.17
2018-08-02T01:24:24.236Z,32.83
2018-08-02T01:27:06.460Z,38.47
2018-08-02T01:29:49.457Z,35.60
2018-08-02T01:32:31.661Z,63.00
2018-08-02T01:35:15.911Z,41.57
2018-08-02T01:37:58.312Z,90.80
2018-08-02T01:40:41.266Z,63.10
2018-08-02T01:43:23.901Z,42.97
2018-08-02T01:46:06.957Z,26.47
2018-08-02T01:48:49.825Z,75.60
2018-08-02T01:51:32.244Z,140.57
2018-08-02T01:54:15.119Z,92.53
2018-08-02T01:56:57.732Z,96.77
2018-08-02T01:59:40.425Z,93.53
2018-08-02T02:02:24.368Z,32.97
2018-08-02T02:05:07.239Z,18.90
2018-08-02T02:07:50.272Z,49.03
2018-08-02T02:10:33.523Z,57.50
2018-08-02T02:13:16.768Z,29.37
2018-08-02T02:16:00.047Z,51.87
2018-08-02T02:18:42.249Z,44.73
2018-08-02T02:21:25.139Z,21.07
2018-08-02T02:24:08.067Z,81.73
2018-08-02T02:26:51.345Z,48.03
2018-08-02T02:29:34.564Z,48.67
2018-08-02T02:32:16.837Z,21.97
2018-08-02T02:34:59.537Z,64.53
2018-08-02T02:37:42.916Z,67.97
2018-08-02T02:40:26.323Z,84.97
2018-08-02T02:43:09.001Z,66.20
2018-08-02T02:45:51.560Z,51.37
2018-08-02T02:48:34.121Z,24.33
2018-08-02T02:51:16.939Z,50.00
2018-08-02T02:53:59.996Z,60.37
2018-08-02T02:56:42.720Z,88.27
2018-08-02T02:59:25.101Z,66.97
2018-08-02T03:02:07.999Z,77.97
2018-08-02T03:04:50.928Z,75.47
2018-08-02T03:07:33.704Z,34.27
2018-08-02T03:10:16.133Z,72.87
2018-08-02T03:12:59.280Z,112.70
2018-08-02T03:15:41.704Z,86.70
2018-08-02T03:18:23.519Z,61.77
2018-08-02T03:21:06.750Z,43.73
2018-08-02T03:23:49.539Z,54.23
2018-08-02T03:26:32.159Z,51.90
2018-08-02T03:29:14.956Z,71.00
2018-08-02T03:31:57.543Z,84.20
2018-08-02T03:34:40.127Z,106.47
2018-08-02T03:37:24.157Z,45.20
2018-08-02T03:40:06.331Z,57.40
2018-08-02T03:42:49.014Z,46.67
2018-08-02T03:45:31.880Z,77.77
2018-08-02T03:48:14.788Z,56.97
2018-08-02T03:50:57.500Z,72.67
2018-08-02T03:53:40.424Z,53.07
2018-08-02T03:56:23.582Z,54.30
2018-08-02T03:59:05.968Z,83.63
2018-08-02T04:01:48.599Z,109.13
2018-08-02T04:04:31.440Z,117.70
2018-08-02T04:07:14.078Z,45.37
2018-08-02T04:09:56.872Z,129.57
2018-08-02T04:12:39.478Z,142.90
2018-08-02T04:15:22.489Z,90.57
2018-08-02T04:18:05.538Z,106.93
2018-08-02T04:20:48.334Z,67.63
2018-08-02T04:23:31.006Z,56.83
2018-08-02T04:26:13.614Z,36.50
2018-08-02T04:28:56.817Z,44.47
2018-08-02T04:31:40.080Z,80.23
2018-08-02T04:34:22.891Z,30.93
2018-08-02T04:37:05.343Z,34.03
2018-08-02T04:39:48.186Z,35.03
2018-08-02T04:42:31.082Z,37.17
2018-08-02T04:45:13.541Z,22.50
2018-08-02T04:47:56.600Z,42.57
2018-08-02T04:50:39.167Z,59.03
2018-08-02T04:53:21.956Z,36.40
2018-08-02T04:56:05.032Z,55.53
2018-08-02T04:58:48.322Z,88.77
2018-08-02T05:01:31.044Z,65.57
2018-08-02T05:04:13.874Z,77.20
2018-08-02T05:06:56.396Z,46.80
2018-08-02T05:09:39.081Z,71.57
2018-08-02T05:12:22.342Z,48.67
2018-08-02T05:15:06.097Z,54.27
2018-08-02T05:17:49.336Z,77.60
2018-08-02T05:20:31.858Z,53.63
2018-08-02T05:23:14.755Z,84.30
2018-08-02T05:25:57.643Z,49.03
2018-08-02T05:28:40.110Z,49.90
2018-08-02T05:31:23.338Z,37.03
2018-08-02T05:34:06.572Z,31.27
2018-08-02T05:36:49.906Z,57.33
2018-08-02T05:39:32.429Z,55.23
2018-08-02T05:42:15.134Z,70.03
2018-08-02T05:44:57.979Z,39.93
2018-08-02T05:47:40.937Z,54.70
2018-08-02T05:50:23.405Z,30.93
2018-08-02T05:53:05.985Z,27.23
2018-08-02T05:55:48.734Z,19.63
2018-08-02T05:58:31.618Z,30.13
2018-08-02T06:01:14.624Z,43.10
2018-08-02T06:03:57.243Z,55.03
2018-08-02T06:06:40.067Z,30.20
2018-08-02T06:09:22.532Z,86.43
2018-08-02T06:12:06.204Z,142.37
2018-08-02T06:14:48.560Z,112.67
2018-08-02T06:17:31.768Z,93.23
2018-08-02T06:20:14.164Z,88.23
2018-08-02T06:22:57.753Z,81.33
2018-08-02T06:25:40.801Z,101.93
2018-08-02T06:28:23.536Z,96.40
2018-08-02T06:31:06.215Z,96.37
2018-08-02T06:33:48.968Z,71.93
2018-08-02T06:36:32.067Z,47.10
2018-08-02T06:39:15.055Z,36.90
2018-08-02T06:41:58.822Z,23.43
2018-08-02T06:44:42.159Z,18.47
2018-08-02T06:47:24.946Z,16.00
2018-08-02T06:50:08.157Z,12.17
2018-08-02T06:52:50.589Z,26.45
2018-08-02T06:55:32.624Z,9.97
2018-08-02T06:58:15.920Z,11.48
2018-08-02T07:00:58.860Z,10.53
2018-08-02T07:03:41.136Z,12.90
2018-08-02T07:06:24.173Z,18.30
2018-08-02T07:09:09.916Z,8.83
2018-08-02T07:11:52.720Z,15.35
2018-08-02T07:14:35.371Z,12.20
2018-08-02T07:17:18.728Z,18.48
2018-08-02T07:20:01.952Z,12.20
2018-08-02T07:22:44.680Z,18.02
2018-08-02T07:25:27.591Z,13.50
2018-08-02T07:28:10.144Z,12.47
2018-08-02T07:30:52.981Z,11.12
2018-08-02T07:33:35.495Z,14.70
2018-08-02T07:36:18.492Z,6.92
2018-08-02T07:39:01.162Z,14.30
2018-08-02T07:41:43.709Z,10.18
2018-08-02T07:44:26.408Z,10.60
2018-08-02T07:47:09.368Z,9.30
2018-08-02T07:49:52.517Z,6.67
2018-08-02T07:52:35.125Z,7.22
2018-08-02T07:55:17.828Z,10.18
2018-08-02T07:58:01.460Z,14.95
2018-08-02T08:00:44.876Z,9.05
2018-08-02T08:03:27.291Z,16.85
2018-08-02T08:06:10.060Z,11.33
2018-08-02T08:08:53.288Z,7.08
2018-08-02T08:11:35.944Z,9.23
2018-08-02T08:14:18.812Z,9.00
2018-08-02T08:17:02.019Z,16.15
2018-08-02T08:19:44.747Z,8.03
2018-08-02T08:22:27.249Z,6.62
2018-08-02T08:25:10.459Z,17.82
2018-08-02T08:27:52.941Z,10.23
2018-08-02T08:30:35.961Z,14.75
2018-08-02T08:33:18.457Z,7.45
2018-08-02T08:36:01.482Z,9.03
2018-08-02T08:38:44.213Z,7.28
2018-08-02T08:41:27.785Z,15.08
2018-08-02T08:44:10.432Z,8.23
2018-08-02T08:46:53.037Z,7.65
2018-08-02T08:49:45.568Z,9.10
2018-08-02T08:52:28.728Z,14.13
2018-08-02T08:55:11.897Z,17.90
2018-08-02T08:57:55.173Z,8.80
2018-08-02T09:00:37.975Z,13.80
2018-08-02T09:03:20.695Z,22.20
2018-08-02T09:06:03.488Z,9.00
2018-08-02T09:08:46.206Z,12.43
2018-08-02T09:11:29.062Z,8.25
2018-08-02T09:14:11.959Z,7.97
2018-08-02T09:16:55.246Z,12.60
2018-08-02T09:19:39.161Z,7.72
2018-08-02T09:22:22.296Z,7.58
2018-08-02T09:25:05.204Z,8.43
2018-08-02T09:27:48.183Z,8.95
2018-08-02T09:30:30.880Z,6.55
2018-08-02T09:33:13.803Z,29.42
2018-08-02T09:35:56.872Z,7.08
2018-08-02T09:38:39.311Z,15.80
2018-08-02T09:41:22.086Z,9.88
2018-08-02T09:44:05.688Z,8.88
2018-08-02T09:46:50.102Z,6.15
2018-08-02T09:49:33.059Z,5.10
2018-08-02T09:52:15.592Z,6.83
2018-08-02T09:54:57.961Z,8.15
2018-08-02T09:57:41.372Z,6.30
2018-08-02T10:00:30.107Z,8.28
2018-08-02T10:03:13.165Z,6.40
2018-08-02T10:05:55.901Z,6.10
2018-08-02T10:08:38.492Z,7.10
2018-08-02T10:11:21.431Z,9.18
2018-08-02T10:14:05.049Z,6.90
2018-08-02T10:16:47.669Z,8.43
2018-08-02T10:19:30.591Z,8.23
2018-08-02T10:22:13.194Z,10.75
2018-08-02T10:24:56.287Z,6.45
2018-08-02T10:27:38.540Z,8.53
2018-08-02T10:30:21.101Z,11.10
2018-08-02T10:33:03.811Z,13.85
2018-08-02T10:35:46.502Z,8.05
2018-08-02T10:38:29.269Z,8.35
2018-08-02T10:41:12.322Z,9.10
2018-08-02T10:43:55.027Z,8.85
2018-08-02T10:46:37.627Z,6.25
2018-08-02T10:49:20.430Z,5.80
2018-08-02T10:52:03.036Z,8.93
2018-08-02T10:54:46.392Z,8.28
2018-08-02T10:57:28.762Z,7.30
2018-08-02T11:00:11.389Z,6.42
2018-08-02T11:02:54.071Z,5.20
2018-08-02T11:05:37.665Z,7.45
2018-08-02T11:08:19.835Z,8.03
2018-08-02T11:11:02.616Z,8.00
2018-08-02T11:13:45.421Z,8.00
2018-08-02T11:16:28.179Z,5.60
2018-08-02T11:19:11.249Z,5.95
2018-08-02T11:21:53.540Z,9.70
2018-08-02T11:24:36.579Z,8.40
2018-08-02T11:27:19.585Z,6.83
2018-08-02T11:30:02.311Z,9.30
2018-08-02T11:32:44.775Z,6.80
2018-08-02T11:35:27.389Z,6.92
2018-08-02T11:38:10.384Z,6.08
2018-08-02T11:40:52.871Z,8.65
2018-08-02T11:43:35.033Z,8.33
2018-08-02T11:46:18.436Z,8.93
2018-08-02T11:49:01.149Z,5.72
2018-08-02T11:51:43.880Z,6.58
2018-08-02T11:54:26.391Z,11.68
2018-08-02T11:57:09.533Z,10.38
2018-08-02T11:59:51.969Z,5.33
2018-08-02T12:02:36.255Z,7.87
2018-08-02T12:05:18.504Z,9.45
2018-08-02T12:08:00.632Z,7.35
2018-08-02T12:10:43.831Z,7.55
2018-08-02T12:13:26.516Z,7.55
2018-08-02T12:16:09.053Z,6.20
2018-08-02T12:18:51.896Z,6.62
2018-08-02T12:21:34.881Z,6.95
2018-08-02T12:24:17.324Z,10.25
2018-08-02T12:27:00.486Z,9.35
2018-08-02T12:29:43.336Z,10.08
2018-08-02T12:32:26.315Z,6.85
2018-08-02T12:35:08.972Z,6.72
2018-08-02T12:37:51.809Z,7.17
2018-08-02T12:40:34.455Z,8.55
2018-08-02T12:43:17.304Z,7.97
2018-08-02T12:46:00.305Z,6.92
2018-08-02T12:48:43.336Z,6.00
2018-08-02T12:51:27.296Z,6.90
2018-08-02T12:54:10.188Z,7.17
2018-08-02T12:56:53.792Z,10.43
2018-08-02T12:59:37.597Z,8.48
2018-08-02T13:02:20.735Z,5.83
2018-08-02T13:05:03.379Z,7.75
2018-08-02T13:07:46.405Z,6.10
2018-08-02T13:10:28.766Z,7.90
2018-08-02T13:13:11.274Z,6.37
2018-08-02T13:15:54.756Z,6.30
2018-08-02T13:18:37.668Z,9.73
2018-08-02T13:21:20.599Z,7.30
2018-08-02T13:24:03.260Z,5.45
2018-08-02T13:26:46.114Z,12.68
2018-08-02T13:29:28.875Z,6.60
2018-08-02T13:32:11.576Z,13.13
2018-08-02T13:34:54.383Z,9.75
2018-08-02T13:37:36.980Z,6.45
2018-08-02T13:40:19.603Z,6.12
2018-08-02T13:43:02.444Z,6.97
2018-08-02T13:45:45.545Z,6.95
2018-08-02T13:48:28.937Z,8.08
2018-08-02T13:51:11.655Z,7.40
2018-08-02T13:53:54.455Z,8.18
2018-08-02T13:56:37.121Z,9.80
2018-08-02T13:59:19.984Z,7.75
2018-08-02T14:02:02.964Z,6.58
2018-08-02T14:04:45.534Z,6.47
2018-08-02T14:07:27.992Z,7.40
2018-08-02T14:10:11.003Z,6.30
2018-08-02T14:12:54.216Z,7.90
2018-08-02T14:15:37.440Z,7.00
2018-08-02T14:18:20.008Z,10.98
2018-08-02T14:21:03.245Z,12.85
2018-08-02T14:23:45.725Z,5.90
2018-08-02T14:26:28.276Z,5.90
2018-08-02T14:29:11.687Z,8.20
2018-08-02T14:31:54.735Z,5.97
2018-08-02T14:34:37.744Z,7.50
2018-08-02T14:37:20.976Z,5.72
2018-08-02T14:40:04.050Z,7.50
2018-08-02T14:42:46.763Z,5.95
2018-08-02T14:45:29.532Z,6.60
2018-08-02T14:48:12.649Z,5.80
2018-08-02T14:50:56.251Z,5.45
2018-08-02T14:53:38.844Z,5.33
2018-08-02T14:56:21.580Z,6.97
2018-08-02T14:59:04.368Z,6.92
2018-08-02T15:01:47.239Z,5.60
2018-08-02T15:04:30.338Z,5.60
2018-08-02T15:07:13.084Z,6.75
2018-08-02T15:09:55.269Z,6.00
2018-08-02T15:12:38.705Z,8.78
2018-08-02T15:15:21.070Z,7.10
2018-08-02T15:18:03.977Z,6.40
2018-08-02T15:20:47.534Z,8.00
2018-08-02T15:23:30.911Z,6.30
2018-08-02T15:26:13.832Z,6.50
2018-08-02T15:28:56.048Z,5.97
2018-08-02T15:31:39.027Z,8.65
2018-08-02T15:34:21.815Z,11.48
2018-08-02T15:37:04.663Z,7.45
2018-08-02T15:39:47.575Z,6.62
2018-08-02T15:42:30.704Z,7.00
2018-08-02T15:45:12.971Z,6.83
2018-08-02T15:47:55.916Z,9.48
2018-08-02T15:50:38.881Z,6.53
2018-08-02T15:53:21.507Z,7.90
2018-08-02T15:56:04.355Z,8.90
2018-08-02T15:58:47.351Z,6.62
2018-08-02T16:01:30.251Z,6.75
2018-08-02T16:04:13.207Z,8.48
2018-08-02T16:06:56.939Z,6.83
2018-08-02T16:09:39.325Z,7.87
2018-08-02T16:12:22.131Z,7.58
2018-08-02T16:15:05.463Z,6.25
2018-08-02T16:17:47.860Z,6.62
2018-08-02T16:20:30.646Z,8.15
2018-08-02T16:23:13.679Z,10.15
2018-08-02T16:25:56.084Z,11.05
2018-08-02T16:28:39.156Z,6.50
2018-08-02T16:31:21.446Z,6.90
2018-08-02T16:34:03.600Z,7.72
2018-08-02T16:36:46.958Z,7.67
2018-08-02T16:39:30.574Z,6.53
2018-08-02T16:42:13.502Z,6.58
2018-08-02T16:44:56.864Z,8.03
2018-08-02T16:47:39.938Z,6.12
2018-08-02T16:50:22.780Z,6.95
2018-08-02T16:53:06.003Z,6.37
2018-08-02T16:55:48.377Z,7.05
2018-08-02T16:58:31.159Z,6.33
2018-08-02T17:01:14.113Z,7.40
2018-08-02T17:03:56.436Z,5.40
2018-08-02T17:06:39.031Z,6.08
2018-08-02T17:09:21.914Z,11.22
2018-08-02T17:12:04.599Z,6.72
2018-08-02T17:14:47.940Z,11.85
2018-08-02T17:17:30.486Z,12.33
2018-08-02T17:20:12.997Z,7.92
2018-08-02T17:22:55.822Z,5.92
2018-08-02T17:25:38.607Z,5.53
2018-08-02T17:28:21.247Z,8.30
2018-08-02T17:31:04.209Z,6.20
2018-08-02T17:33:47.320Z,9.00
2018-08-02T17:39:31.704Z,6.45
2018-08-02T17:42:14.305Z,13.03
2018-08-02T17:44:57.268Z,6.15
2018-08-02T17:47:40.028Z,7.05
2018-08-02T17:50:22.775Z,7.33
2018-08-02T17:53:07.150Z,7.58
2018-08-02T17:55:50.435Z,11.18
2018-08-02T17:58:33.159Z,6.42
2018-08-02T18:01:15.799Z,7.28
2018-08-02T18:03:58.568Z,8.90
2018-08-02T18:06:41.286Z,10.32
2018-08-02T18:09:24.048Z,7.85
2018-08-02T18:12:07.163Z,6.30
2018-08-02T18:14:50.146Z,10.10
2018-08-02T18:17:32.453Z,9.90
2018-08-02T18:20:15.049Z,11.22
2018-08-02T18:22:57.891Z,16.27
2018-08-02T18:25:40.420Z,14.63
2018-08-02T18:28:23.203Z,6.93
2018-08-02T18:31:08.166Z,7.47
2018-08-02T18:33:50.723Z,6.90
2018-08-02T18:36:33.154Z,7.15
2018-08-02T18:39:16.116Z,7.50
2018-08-02T18:41:58.896Z,10.82
2018-08-02T18:44:41.875Z,7.62
2018-08-02T18:47:26.606Z,16.12
2018-08-02T18:50:09.753Z,7.83
2018-08-02T18:52:52.861Z,9.80
2018-08-02T18:55:35.094Z,20.53
2018-08-02T18:58:18.502Z,14.23
2018-08-02T19:01:01.185Z,18.27
2018-08-02T19:03:43.499Z,10.60
2018-08-02T19:06:26.072Z,6.97
2018-08-02T19:09:09.414Z,14.78
2018-08-02T19:11:53.088Z,10.70
2018-08-02T19:14:35.593Z,10.32
2018-08-02T19:17:18.533Z,10.70
2018-08-02T19:20:01.123Z,13.78
2018-08-02T19:22:45.014Z,9.70
2018-08-02T19:25:27.577Z,23.20
2018-08-02T19:28:10.610Z,54.80
2018-08-02T19:30:53.116Z,24.23
2018-08-02T19:33:35.796Z,15.60
2018-08-02T19:36:21.428Z,11.88
2018-08-02T19:39:07.655Z,16.43
2018-08-02T19:41:50.109Z,15.80
2018-08-02T19:44:32.869Z,9.70
2018-08-02T19:47:15.328Z,9.40
2018-08-02T19:49:58.681Z,8.80
2018-08-02T19:52:41.942Z,8.00
2018-08-02T19:55:24.801Z,8.63
2018-08-02T19:58:07.454Z,7.20
2018-08-02T20:00:49.895Z,9.73
2018-08-02T20:03:33.571Z,10.07
2018-08-02T20:06:17.823Z,8.63
2018-08-02T20:09:01.514Z,8.23
2018-08-02T20:11:44.359Z,13.00
2018-08-02T20:14:27.290Z,13.73
2018-08-02T20:17:09.827Z,12.70
2018-08-02T20:19:52.354Z,9.20
2018-08-02T20:22:35.833Z,8.50
2018-08-02T20:25:19.055Z,9.50
2018-08-02T20:28:01.869Z,10.37
2018-08-02T20:30:44.782Z,11.07
2018-08-02T20:33:27.388Z,7.73
2018-08-02T20:36:10.693Z,8.43
2018-08-02T20:38:53.729Z,8.87
2018-08-02T20:41:36.059Z,8.70
2018-08-02T20:44:19.053Z,10.18
2018-08-02T20:47:01.671Z,8.63
2018-08-02T20:49:44.682Z,6.90
2018-08-02T20:52:27.110Z,9.07
2018-08-02T20:55:09.857Z,18.00
2018-08-02T20:57:52.236Z,41.57
2018-08-02T21:00:35.432Z,22.90
2018-08-02T21:03:17.930Z,17.90
2018-08-02T21:06:00.712Z,27.23
2018-08-02T21:08:43.570Z,11.73
2018-08-02T21:11:26.160Z,11.20
2018-08-02T21:14:09.126Z,15.53
2018-08-02T21:16:52.841Z,15.67
2018-08-02T21:19:35.246Z,10.70
2018-08-02T21:22:18.093Z,11.57
2018-08-02T21:25:00.883Z,12.00
2018-08-02T21:27:43.635Z,11.30
2018-08-02T21:30:26.538Z,10.57
2018-08-02T21:33:09.542Z,8.20
2018-08-02T21:35:52.236Z,11.63
2018-08-02T21:38:34.456Z,7.10
2018-08-02T21:41:18.325Z,13.20
2018-08-02T21:44:00.797Z,10.47
2018-08-02T21:46:44.494Z,14.90
2018-08-02T21:49:27.588Z,8.13
2018-08-02T21:52:10.500Z,10.90
2018-08-02T21:54:53.285Z,8.77
2018-08-02T21:57:35.987Z,7.80
2018-08-02T22:00:32.680Z,9.37
2018-08-02T22:03:15.709Z,10.60
2018-08-02T22:06:03.530Z,12.83
2018-08-02T22:08:47.556Z,8.53
2018-08-02T22:11:35.643Z,9.40
2018-08-02T22:14:23.780Z,7.33
2018-08-02T22:17:07.319Z,9.83
2018-08-02T22:19:50.300Z,8.90
2018-08-02T22:22:33.516Z,8.47
2018-08-02T22:25:16.633Z,8.57
2018-08-02T22:27:59.648Z,12.40
2018-08-02T22:30:42.533Z,8.23
2018-08-02T22:33:24.641Z,9.23
2018-08-02T22:36:08.070Z,8.30
2018-08-02T22:38:51.484Z,19.60
2018-08-02T22:41:34.822Z,10.47
2018-08-02T22:44:17.262Z,9.07
2018-08-02T22:47:00.422Z,11.97
2018-08-02T22:49:42.885Z,10.03
2018-08-02T22:52:25.576Z,10.23
2018-08-02T22:55:08.357Z,8.10
2018-08-02T22:57:50.928Z,8.13
2018-08-02T23:00:33.081Z,10.57
2018-08-02T23:03:16.396Z,11.30
2018-08-02T23:05:59.111Z,9.40
2018-08-02T23:08:41.664Z,12.00
2018-08-02T23:11:24.330Z,12.47
2018-08-02T23:14:07.694Z,7.93
2018-08-02T23:16:50.963Z,9.63
2018-08-02T23:19:32.887Z,11.60
2018-08-02T23:22:16.018Z,11.40
2018-08-02T23:24:58.835Z,13.63
2018-08-02T23:27:41.421Z,10.60
2018-08-02T23:30:24.069Z,8.73
2018-08-02T23:33:06.819Z,13.03
2018-08-02T23:35:49.636Z,7.77
2018-08-02T23:38:32.503Z,11.10
2018-08-02T23:41:15.301Z,9.93
2018-08-02T23:43:57.837Z,9.57
2018-08-02T23:46:40.841Z,9.20
2018-08-02T23:49:23.251Z,12.80
2018-08-02T23:52:06.493Z,9.83
2018-08-02T23:54:49.820Z,7.80
2018-08-02T23:57:32.256Z,11.73
